sensor_id;sensor_type;location;lat;lon;timestamp;temperature;humidity
40758;DHT22;26462;47.384;19.218;2023-06-19T00:01:14;18.60;95.20
40758;DHT22;26462;47.384;19.218;2023-06-19T00:03:41;18.60;94.80
40758;DHT22;26462;47.384;19.218;2023-06-19T00:06:08;18.60;95.10
40758;DHT22;26462;47.384;19.218;2023-06-19T00:08:35;18.50;95.20
40758;DHT22;26462;47.384;19.218;2023-06-19T00:11:03;18.50;95.60
40758;DHT22;26462;47.384;19.218;2023-06-19T00:13:30;18.50;95.80
40758;DHT22;26462;47.384;19.218;2023-06-19T00:15:58;18.40;95.60
40758;DHT22;26462;47.384;19.218;2023-06-19T00:18:28;18.50;95.70
40758;DHT22;26462;47.384;19.218;2023-06-19T00:20:55;18.50;96.40
40758;DHT22;26462;47.384;19.218;2023-06-19T00:23:23;18.50;96.20
40758;DHT22;26462;47.384;19.218;2023-06-19T00:25:50;18.50;95.90
40758;DHT22;26462;47.384;19.218;2023-06-19T00:28:17;18.50;96.10
40758;DHT22;26462;47.384;19.218;2023-06-19T00:30:46;18.50;96.20
40758;DHT22;26462;47.384;19.218;2023-06-19T00:33:14;18.50;96.60
40758;DHT22;26462;47.384;19.218;2023-06-19T00:35:41;18.40;96.70
40758;DHT22;26462;47.384;19.218;2023-06-19T00:38:09;18.30;97.00
40758;DHT22;26462;47.384;19.218;2023-06-19T00:40:36;18.40;97.30
40758;DHT22;26462;47.384;19.218;2023-06-19T00:43:04;18.40;96.70
40758;DHT22;26462;47.384;19.218;2023-06-19T00:45:31;18.30;96.50
40758;DHT22;26462;47.384;19.218;2023-06-19T00:47:59;18.40;96.80
40758;DHT22;26462;47.384;19.218;2023-06-19T00:50:28;18.40;96.60
40758;DHT22;26462;47.384;19.218;2023-06-19T00:52:59;18.30;96.30
40758;DHT22;26462;47.384;19.218;2023-06-19T00:55:29;18.30;96.40
40758;DHT22;26462;47.384;19.218;2023-06-19T00:57:59;18.30;96.90
40758;DHT22;26462;47.384;19.218;2023-06-19T01:00:27;18.20;97.10
40758;DHT22;26462;47.384;19.218;2023-06-19T01:02:56;18.30;97.40
40758;DHT22;26462;47.384;19.218;2023-06-19T01:05:24;18.20;97.30
40758;DHT22;26462;47.384;19.218;2023-06-19T01:07:59;18.20;97.60
40758;DHT22;26462;47.384;19.218;2023-06-19T01:10:35;18.20;97.80
40758;DHT22;26462;47.384;19.218;2023-06-19T01:13:10;18.10;98.20
40758;DHT22;26462;47.384;19.218;2023-06-19T01:15:39;18.10;97.90
40758;DHT22;26462;47.384;19.218;2023-06-19T01:18:08;18.10;98.00
40758;DHT22;26462;47.384;19.218;2023-06-19T01:20:38;18.00;98.20
40758;DHT22;26462;47.384;19.218;2023-06-19T01:23:08;18.00;97.80
40758;DHT22;26462;47.384;19.218;2023-06-19T01:25:36;18.00;97.50
40758;DHT22;26462;47.384;19.218;2023-06-19T01:28:07;18.00;97.80
40758;DHT22;26462;47.384;19.218;2023-06-19T01:30:39;17.90;97.80
40758;DHT22;26462;47.384;19.218;2023-06-19T01:33:15;18.00;97.90
40758;DHT22;26462;47.384;19.218;2023-06-19T01:35:46;17.70;97.60
40758;DHT22;26462;47.384;19.218;2023-06-19T01:38:15;17.40;98.90
40758;DHT22;26462;47.384;19.218;2023-06-19T01:40:43;17.70;98.80
40758;DHT22;26462;47.384;19.218;2023-06-19T01:43:10;17.80;98.70
40758;DHT22;26462;47.384;19.218;2023-06-19T01:45:38;17.80;98.80
40758;DHT22;26462;47.384;19.218;2023-06-19T01:48:05;17.80;98.70
40758;DHT22;26462;47.384;19.218;2023-06-19T01:50:32;17.70;99.00
40758;DHT22;26462;47.384;19.218;2023-06-19T01:52:59;17.70;99.10
40758;DHT22;26462;47.384;19.218;2023-06-19T01:55:26;17.70;98.60
40758;DHT22;26462;47.384;19.218;2023-06-19T01:57:53;17.70;98.70
40758;DHT22;26462;47.384;19.218;2023-06-19T02:00:21;17.70;98.60
40758;DHT22;26462;47.384;19.218;2023-06-19T02:02:48;17.70;98.10
40758;DHT22;26462;47.384;19.218;2023-06-19T02:05:16;17.70;98.00
40758;DHT22;26462;47.384;19.218;2023-06-19T02:07:44;17.70;98.20
40758;DHT22;26462;47.384;19.218;2023-06-19T02:10:11;17.70;98.70
40758;DHT22;26462;47.384;19.218;2023-06-19T02:12:38;17.70;98.30
40758;DHT22;26462;47.384;19.218;2023-06-19T02:15:06;17.70;98.70
40758;DHT22;26462;47.384;19.218;2023-06-19T02:17:33;17.70;98.50
40758;DHT22;26462;47.384;19.218;2023-06-19T02:20:02;17.70;98.40
40758;DHT22;26462;47.384;19.218;2023-06-19T02:22:32;17.80;98.80
40758;DHT22;26462;47.384;19.218;2023-06-19T02:24:59;17.80;98.90
40758;DHT22;26462;47.384;19.218;2023-06-19T02:27:26;17.70;98.60
40758;DHT22;26462;47.384;19.218;2023-06-19T02:29:54;17.80;98.60
40758;DHT22;26462;47.384;19.218;2023-06-19T02:32:21;17.70;98.70
40758;DHT22;26462;47.384;19.218;2023-06-19T02:34:48;17.70;98.80
40758;DHT22;26462;47.384;19.218;2023-06-19T02:37:15;17.60;98.50
40758;DHT22;26462;47.384;19.218;2023-06-19T02:39:42;17.70;98.60
40758;DHT22;26462;47.384;19.218;2023-06-19T02:42:09;17.60;99.00
40758;DHT22;26462;47.384;19.218;2023-06-19T02:44:37;17.60;99.20
40758;DHT22;26462;47.384;19.218;2023-06-19T02:47:04;17.50;99.20
40758;DHT22;26462;47.384;19.218;2023-06-19T02:49:32;17.60;99.20
40758;DHT22;26462;47.384;19.218;2023-06-19T02:51:59;17.60;99.30
40758;DHT22;26462;47.384;19.218;2023-06-19T02:54:26;17.50;99.40
40758;DHT22;26462;47.384;19.218;2023-06-19T02:56:53;17.60;99.40
40758;DHT22;26462;47.384;19.218;2023-06-19T02:59:20;17.50;99.40
40758;DHT22;26462;47.384;19.218;2023-06-19T03:01:50;17.50;99.10
40758;DHT22;26462;47.384;19.218;2023-06-19T03:04:17;17.60;99.20
40758;DHT22;26462;47.384;19.218;2023-06-19T03:06:44;17.60;99.40
40758;DHT22;26462;47.384;19.218;2023-06-19T03:09:11;17.60;99.80
40758;DHT22;26462;47.384;19.218;2023-06-19T03:11:42;17.60;99.90
40758;DHT22;26462;47.384;19.218;2023-06-19T03:14:10;17.50;99.30
40758;DHT22;26462;47.384;19.218;2023-06-19T03:16:37;17.50;99.50
40758;DHT22;26462;47.384;19.218;2023-06-19T03:19:05;17.60;99.30
40758;DHT22;26462;47.384;19.218;2023-06-19T03:21:33;17.50;99.40
40758;DHT22;26462;47.384;19.218;2023-06-19T03:24:03;17.50;99.10
40758;DHT22;26462;47.384;19.218;2023-06-19T03:26:31;17.50;99.70
40758;DHT22;26462;47.384;19.218;2023-06-19T03:29:01;17.50;99.90
40758;DHT22;26462;47.384;19.218;2023-06-19T03:31:37;17.50;99.80
40758;DHT22;26462;47.384;19.218;2023-06-19T03:34:07;17.60;99.90
40758;DHT22;26462;47.384;19.218;2023-06-19T03:36:36;17.60;99.90
40758;DHT22;26462;47.384;19.218;2023-06-19T03:39:07;17.60;99.90
40758;DHT22;26462;47.384;19.218;2023-06-19T03:41:36;17.60;99.90
40758;DHT22;26462;47.384;19.218;2023-06-19T03:44:03;17.70;99.90
40758;DHT22;26462;47.384;19.218;2023-06-19T03:46:30;17.70;99.70
40758;DHT22;26462;47.384;19.218;2023-06-19T03:48:57;17.80;99.50
40758;DHT22;26462;47.384;19.218;2023-06-19T03:51:28;17.80;99.20
40758;DHT22;26462;47.384;19.218;2023-06-19T03:53:56;17.80;99.20
40758;DHT22;26462;47.384;19.218;2023-06-19T03:56:23;17.80;98.70
40758;DHT22;26462;47.384;19.218;2023-06-19T03:58:51;17.80;98.70
40758;DHT22;26462;47.384;19.218;2023-06-19T04:01:18;17.80;98.90
40758;DHT22;26462;47.384;19.218;2023-06-19T04:03:47;17.80;99.10
40758;DHT22;26462;47.384;19.218;2023-06-19T04:06:15;17.80;99.60
40758;DHT22;26462;47.384;19.218;2023-06-19T04:08:43;17.80;99.10
40758;DHT22;26462;47.384;19.218;2023-06-19T04:11:12;17.80;99.20
40758;DHT22;26462;47.384;19.218;2023-06-19T04:13:39;17.80;99.10
40758;DHT22;26462;47.384;19.218;2023-06-19T04:16:06;18.00;99.20
40758;DHT22;26462;47.384;19.218;2023-06-19T04:18:33;18.00;98.60
40758;DHT22;26462;47.384;19.218;2023-06-19T04:21:03;18.10;98.60
40758;DHT22;26462;47.384;19.218;2023-06-19T04:23:31;18.10;97.50
40758;DHT22;26462;47.384;19.218;2023-06-19T04:25:58;18.10;97.80
40758;DHT22;26462;47.384;19.218;2023-06-19T04:28:25;18.20;97.40
40758;DHT22;26462;47.384;19.218;2023-06-19T04:30:53;18.10;97.30
40758;DHT22;26462;47.384;19.218;2023-06-19T04:33:27;18.20;97.90
40758;DHT22;26462;47.384;19.218;2023-06-19T04:35:56;18.20;97.50
40758;DHT22;26462;47.384;19.218;2023-06-19T04:38:24;18.20;97.40
40758;DHT22;26462;47.384;19.218;2023-06-19T04:40:51;18.40;97.70
40758;DHT22;26462;47.384;19.218;2023-06-19T04:43:19;18.60;97.80
40758;DHT22;26462;47.384;19.218;2023-06-19T04:45:46;18.70;97.50
40758;DHT22;26462;47.384;19.218;2023-06-19T04:48:13;18.90;97.20
40758;DHT22;26462;47.384;19.218;2023-06-19T04:50:40;19.00;96.60
40758;DHT22;26462;47.384;19.218;2023-06-19T04:53:07;19.10;96.40
40758;DHT22;26462;47.384;19.218;2023-06-19T04:55:35;19.10;96.00
40758;DHT22;26462;47.384;19.218;2023-06-19T04:58:02;19.10;96.00
40758;DHT22;26462;47.384;19.218;2023-06-19T05:00:29;19.10;96.30
40758;DHT22;26462;47.384;19.218;2023-06-19T05:02:56;19.00;97.10
40758;DHT22;26462;47.384;19.218;2023-06-19T05:05:28;18.90;97.60
40758;DHT22;26462;47.384;19.218;2023-06-19T05:07:55;19.00;97.40
40758;DHT22;26462;47.384;19.218;2023-06-19T05:10:22;19.30;97.50
40758;DHT22;26462;47.384;19.218;2023-06-19T05:12:49;19.10;97.40
40758;DHT22;26462;47.384;19.218;2023-06-19T05:15:17;19.10;97.70
40758;DHT22;26462;47.384;19.218;2023-06-19T05:17:44;19.40;97.90
40758;DHT22;26462;47.384;19.218;2023-06-19T05:20:13;19.40;97.30
40758;DHT22;26462;47.384;19.218;2023-06-19T05:22:40;19.40;97.50
40758;DHT22;26462;47.384;19.218;2023-06-19T05:25:08;19.50;97.70
40758;DHT22;26462;47.384;19.218;2023-06-19T05:27:35;19.60;98.00
40758;DHT22;26462;47.384;19.218;2023-06-19T05:30:03;19.80;97.60
40758;DHT22;26462;47.384;19.218;2023-06-19T05:32:31;20.10;97.50
40758;DHT22;26462;47.384;19.218;2023-06-19T05:34:58;20.30;97.30
40758;DHT22;26462;47.384;19.218;2023-06-19T05:37:25;20.50;96.60
40758;DHT22;26462;47.384;19.218;2023-06-19T05:39:54;20.60;96.00
40758;DHT22;26462;47.384;19.218;2023-06-19T05:42:21;20.80;95.80
40758;DHT22;26462;47.384;19.218;2023-06-19T05:44:48;20.80;95.00
40758;DHT22;26462;47.384;19.218;2023-06-19T05:47:20;20.90;95.60
40758;DHT22;26462;47.384;19.218;2023-06-19T05:49:48;21.00;94.80
40758;DHT22;26462;47.384;19.218;2023-06-19T05:52:15;21.20;94.40
40758;DHT22;26462;47.384;19.218;2023-06-19T05:54:42;21.20;94.20
40758;DHT22;26462;47.384;19.218;2023-06-19T05:57:11;21.40;94.10
40758;DHT22;26462;47.384;19.218;2023-06-19T05:59:38;21.50;94.10
40758;DHT22;26462;47.384;19.218;2023-06-19T06:02:06;21.60;93.40
40758;DHT22;26462;47.384;19.218;2023-06-19T06:04:34;21.70;93.40
40758;DHT22;26462;47.384;19.218;2023-06-19T06:07:02;21.80;93.10
40758;DHT22;26462;47.384;19.218;2023-06-19T06:09:29;21.90;93.00
40758;DHT22;26462;47.384;19.218;2023-06-19T06:11:56;22.10;93.00
40758;DHT22;26462;47.384;19.218;2023-06-19T06:14:23;22.20;92.60
40758;DHT22;26462;47.384;19.218;2023-06-19T06:16:50;22.30;92.60
40758;DHT22;26462;47.384;19.218;2023-06-19T06:19:19;22.50;92.70
40758;DHT22;26462;47.384;19.218;2023-06-19T06:21:50;22.40;91.90
40758;DHT22;26462;47.384;19.218;2023-06-19T06:24:17;22.60;92.80
40758;DHT22;26462;47.384;19.218;2023-06-19T06:26:44;22.70;91.70
40758;DHT22;26462;47.384;19.218;2023-06-19T06:29:12;22.80;91.50
40758;DHT22;26462;47.384;19.218;2023-06-19T06:31:39;23.00;91.30
40758;DHT22;26462;47.384;19.218;2023-06-19T06:34:08;23.20;90.90
40758;DHT22;26462;47.384;19.218;2023-06-19T06:36:35;23.20;89.60
40758;DHT22;26462;47.384;19.218;2023-06-19T06:39:10;23.40;90.40
40758;DHT22;26462;47.384;19.218;2023-06-19T06:41:37;23.50;90.40
40758;DHT22;26462;47.384;19.218;2023-06-19T06:44:05;23.70;89.80
40758;DHT22;26462;47.384;19.218;2023-06-19T06:46:32;23.70;89.00
40758;DHT22;26462;47.384;19.218;2023-06-19T06:48:59;23.70;87.10
40758;DHT22;26462;47.384;19.218;2023-06-19T06:51:26;23.70;87.20
40758;DHT22;26462;47.384;19.218;2023-06-19T06:53:56;23.80;86.40
40758;DHT22;26462;47.384;19.218;2023-06-19T06:56:23;23.90;86.10
40758;DHT22;26462;47.384;19.218;2023-06-19T06:58:51;24.10;85.10
40758;DHT22;26462;47.384;19.218;2023-06-19T07:01:18;24.10;83.20
40758;DHT22;26462;47.384;19.218;2023-06-19T07:03:50;24.10;83.50
40758;DHT22;26462;47.384;19.218;2023-06-19T07:06:17;24.10;83.30
40758;DHT22;26462;47.384;19.218;2023-06-19T07:08:45;24.30;84.30
40758;DHT22;26462;47.384;19.218;2023-06-19T07:11:14;24.60;85.50
40758;DHT22;26462;47.384;19.218;2023-06-19T07:13:41;24.50;83.60
40758;DHT22;26462;47.384;19.218;2023-06-19T07:16:08;24.70;82.70
40758;DHT22;26462;47.384;19.218;2023-06-19T07:18:35;24.80;82.00
40758;DHT22;26462;47.384;19.218;2023-06-19T07:21:11;25.00;80.60
40758;DHT22;26462;47.384;19.218;2023-06-19T07:23:41;25.10;80.60
40758;DHT22;26462;47.384;19.218;2023-06-19T07:26:09;25.30;81.90
40758;DHT22;26462;47.384;19.218;2023-06-19T07:28:36;25.30;81.90
40758;DHT22;26462;47.384;19.218;2023-06-19T07:31:04;25.30;79.40
40758;DHT22;26462;47.384;19.218;2023-06-19T07:33:31;25.40;77.90
40758;DHT22;26462;47.384;19.218;2023-06-19T07:35:58;25.20;78.50
40758;DHT22;26462;47.384;19.218;2023-06-19T07:38:25;25.50;80.00
40758;DHT22;26462;47.384;19.218;2023-06-19T07:40:54;25.50;81.50
40758;DHT22;26462;47.384;19.218;2023-06-19T07:43:21;25.70;78.40
40758;DHT22;26462;47.384;19.218;2023-06-19T07:45:49;25.80;77.20
40758;DHT22;26462;47.384;19.218;2023-06-19T07:48:16;25.70;74.90
40758;DHT22;26462;47.384;19.218;2023-06-19T07:50:43;25.40;77.40
40758;DHT22;26462;47.384;19.218;2023-06-19T07:53:11;25.50;76.20
40758;DHT22;26462;47.384;19.218;2023-06-19T07:55:38;25.40;74.40
40758;DHT22;26462;47.384;19.218;2023-06-19T07:58:05;25.50;75.30
40758;DHT22;26462;47.384;19.218;2023-06-19T08:00:32;25.60;75.50
40758;DHT22;26462;47.384;19.218;2023-06-19T08:02:59;25.60;75.50
40758;DHT22;26462;47.384;19.218;2023-06-19T08:05:26;25.80;75.50
40758;DHT22;26462;47.384;19.218;2023-06-19T08:07:54;25.70;73.90
40758;DHT22;26462;47.384;19.218;2023-06-19T08:10:21;25.80;74.50
40758;DHT22;26462;47.384;19.218;2023-06-19T08:12:48;25.90;77.30
40758;DHT22;26462;47.384;19.218;2023-06-19T08:15:17;25.90;74.90
40758;DHT22;26462;47.384;19.218;2023-06-19T08:17:45;26.10;75.70
40758;DHT22;26462;47.384;19.218;2023-06-19T08:20:13;26.20;75.10
40758;DHT22;26462;47.384;19.218;2023-06-19T08:22:40;26.30;76.50
40758;DHT22;26462;47.384;19.218;2023-06-19T08:25:08;26.60;75.40
40758;DHT22;26462;47.384;19.218;2023-06-19T08:27:35;26.60;74.50
40758;DHT22;26462;47.384;19.218;2023-06-19T08:30:02;26.20;74.90
40758;DHT22;26462;47.384;19.218;2023-06-19T08:32:30;25.80;75.90
40758;DHT22;26462;47.384;19.218;2023-06-19T08:34:57;25.70;77.00
40758;DHT22;26462;47.384;19.218;2023-06-19T08:37:24;25.90;77.00
40758;DHT22;26462;47.384;19.218;2023-06-19T08:39:51;26.00;77.70
40758;DHT22;26462;47.384;19.218;2023-06-19T08:42:19;26.30;77.10
40758;DHT22;26462;47.384;19.218;2023-06-19T08:44:46;26.40;78.20
40758;DHT22;26462;47.384;19.218;2023-06-19T08:47:13;26.60;76.40
40758;DHT22;26462;47.384;19.218;2023-06-19T08:49:40;26.80;75.70
40758;DHT22;26462;47.384;19.218;2023-06-19T08:52:08;26.90;75.00
40758;DHT22;26462;47.384;19.218;2023-06-19T08:54:35;26.90;74.70
40758;DHT22;26462;47.384;19.218;2023-06-19T08:57:11;26.50;75.10
40758;DHT22;26462;47.384;19.218;2023-06-19T08:59:39;26.60;75.00
40758;DHT22;26462;47.384;19.218;2023-06-19T09:02:07;26.80;72.40
40758;DHT22;26462;47.384;19.218;2023-06-19T09:04:35;26.90;74.40
40758;DHT22;26462;47.384;19.218;2023-06-19T09:07:03;26.70;73.60
40758;DHT22;26462;47.384;19.218;2023-06-19T09:09:45;26.90;74.20
40758;DHT22;26462;47.384;19.218;2023-06-19T09:12:16;27.10;71.10
40758;DHT22;26462;47.384;19.218;2023-06-19T09:14:55;27.10;71.90
40758;DHT22;26462;47.384;19.218;2023-06-19T09:17:22;27.10;72.10
40758;DHT22;26462;47.384;19.218;2023-06-19T09:19:54;27.00;70.90
40758;DHT22;26462;47.384;19.218;2023-06-19T09:22:24;26.70;69.70
40758;DHT22;26462;47.384;19.218;2023-06-19T09:25:02;26.70;70.10
40758;DHT22;26462;47.384;19.218;2023-06-19T09:27:33;26.90;68.80
40758;DHT22;26462;47.384;19.218;2023-06-19T09:30:01;26.80;69.40
40758;DHT22;26462;47.384;19.218;2023-06-19T09:32:28;26.80;70.70
40758;DHT22;26462;47.384;19.218;2023-06-19T09:34:57;27.00;69.50
40758;DHT22;26462;47.384;19.218;2023-06-19T09:37:28;27.10;69.90
40758;DHT22;26462;47.384;19.218;2023-06-19T09:42:33;27.10;67.70
40758;DHT22;26462;47.384;19.218;2023-06-19T09:45:12;27.20;68.80
40758;DHT22;26462;47.384;19.218;2023-06-19T09:47:42;27.20;67.30
40758;DHT22;26462;47.384;19.218;2023-06-19T09:50:15;27.30;67.20
40758;DHT22;26462;47.384;19.218;2023-06-19T09:52:47;27.00;65.30
40758;DHT22;26462;47.384;19.218;2023-06-19T09:55:19;27.10;66.30
40758;DHT22;26462;47.384;19.218;2023-06-19T09:57:46;27.30;67.70
40758;DHT22;26462;47.384;19.218;2023-06-19T10:00:15;27.30;66.20
40758;DHT22;26462;47.384;19.218;2023-06-19T10:02:49;27.20;68.00
40758;DHT22;26462;47.384;19.218;2023-06-19T10:05:17;27.30;66.10
40758;DHT22;26462;47.384;19.218;2023-06-19T10:07:54;27.30;66.40
40758;DHT22;26462;47.384;19.218;2023-06-19T10:10:27;27.40;67.00
40758;DHT22;26462;47.384;19.218;2023-06-19T10:13:12;27.40;65.50
40758;DHT22;26462;47.384;19.218;2023-06-19T10:15:44;27.50;66.20
40758;DHT22;26462;47.384;19.218;2023-06-19T10:18:16;27.50;64.20
40758;DHT22;26462;47.384;19.218;2023-06-19T10:20:43;27.60;65.60
40758;DHT22;26462;47.384;19.218;2023-06-19T10:23:20;27.70;64.60
40758;DHT22;26462;47.384;19.218;2023-06-19T10:25:57;27.60;62.60
40758;DHT22;26462;47.384;19.218;2023-06-19T10:28:32;27.50;63.40
40758;DHT22;26462;47.384;19.218;2023-06-19T10:31:04;27.60;64.50
40758;DHT22;26462;47.384;19.218;2023-06-19T10:33:36;27.70;64.20
40758;DHT22;26462;47.384;19.218;2023-06-19T10:36:23;27.60;64.20
40758;DHT22;26462;47.384;19.218;2023-06-19T10:38:52;27.60;62.90
40758;DHT22;26462;47.384;19.218;2023-06-19T10:41:23;27.70;65.00
40758;DHT22;26462;47.384;19.218;2023-06-19T10:44:06;27.70;64.40
40758;DHT22;26462;47.384;19.218;2023-06-19T10:46:39;27.80;65.10
40758;DHT22;26462;47.384;19.218;2023-06-19T10:49:08;27.60;63.90
40758;DHT22;26462;47.384;19.218;2023-06-19T10:51:38;27.80;64.90
40758;DHT22;26462;47.384;19.218;2023-06-19T10:54:06;27.70;63.50
40758;DHT22;26462;47.384;19.218;2023-06-19T10:56:33;27.80;65.20
40758;DHT22;26462;47.384;19.218;2023-06-19T10:59:03;27.80;63.80
40758;DHT22;26462;47.384;19.218;2023-06-19T11:01:33;27.60;62.70
40758;DHT22;26462;47.384;19.218;2023-06-19T11:04:09;27.80;64.60
40758;DHT22;26462;47.384;19.218;2023-06-19T11:06:38;28.00;64.30
40758;DHT22;26462;47.384;19.218;2023-06-19T11:09:07;28.10;64.20
40758;DHT22;26462;47.384;19.218;2023-06-19T11:14:11;28.00;61.70
40758;DHT22;26462;47.384;19.218;2023-06-19T11:16:42;27.80;61.50
40758;DHT22;26462;47.384;19.218;2023-06-19T11:19:15;27.90;62.90
40758;DHT22;26462;47.384;19.218;2023-06-19T11:21:48;28.00;60.90
40758;DHT22;26462;47.384;19.218;2023-06-19T11:24:16;28.00;62.20
40758;DHT22;26462;47.384;19.218;2023-06-19T11:26:45;28.00;61.40
40758;DHT22;26462;47.384;19.218;2023-06-19T11:31:46;28.00;61.70
40758;DHT22;26462;47.384;19.218;2023-06-19T11:34:15;28.10;63.10
40758;DHT22;26462;47.384;19.218;2023-06-19T11:36:43;28.10;61.20
40758;DHT22;26462;47.384;19.218;2023-06-19T11:39:11;28.10;62.10
40758;DHT22;26462;47.384;19.218;2023-06-19T11:41:43;28.10;59.50
40758;DHT22;26462;47.384;19.218;2023-06-19T11:44:11;28.10;61.30
40758;DHT22;26462;47.384;19.218;2023-06-19T11:46:38;27.90;59.10
40758;DHT22;26462;47.384;19.218;2023-06-19T11:49:13;27.90;60.70
40758;DHT22;26462;47.384;19.218;2023-06-19T11:51:41;28.10;60.30
40758;DHT22;26462;47.384;19.218;2023-06-19T11:54:10;28.20;61.60
40758;DHT22;26462;47.384;19.218;2023-06-19T11:56:38;28.20;60.30
40758;DHT22;26462;47.384;19.218;2023-06-19T11:59:07;28.30;62.10
40758;DHT22;26462;47.384;19.218;2023-06-19T12:01:35;28.30;62.40
40758;DHT22;26462;47.384;19.218;2023-06-19T12:04:03;28.10;61.80
40758;DHT22;26462;47.384;19.218;2023-06-19T12:06:31;28.10;60.50
40758;DHT22;26462;47.384;19.218;2023-06-19T12:08:58;28.10;60.80
40758;DHT22;26462;47.384;19.218;2023-06-19T12:11:26;28.00;60.80
40758;DHT22;26462;47.384;19.218;2023-06-19T12:13:53;28.00;62.80
40758;DHT22;26462;47.384;19.218;2023-06-19T12:16:20;27.80;62.00
40758;DHT22;26462;47.384;19.218;2023-06-19T12:18:47;27.60;62.00
40758;DHT22;26462;47.384;19.218;2023-06-19T12:21:14;27.40;61.20
40758;DHT22;26462;47.384;19.218;2023-06-19T12:24:00;27.30;62.00
40758;DHT22;26462;47.384;19.218;2023-06-19T12:26:27;27.60;63.40
40758;DHT22;26462;47.384;19.218;2023-06-19T12:28:54;27.90;62.20
40758;DHT22;26462;47.384;19.218;2023-06-19T12:31:22;28.00;63.50
40758;DHT22;26462;47.384;19.218;2023-06-19T12:33:49;28.20;62.80
40758;DHT22;26462;47.384;19.218;2023-06-19T12:36:16;28.10;61.20
40758;DHT22;26462;47.384;19.218;2023-06-19T12:38:43;28.10;61.20
40758;DHT22;26462;47.384;19.218;2023-06-19T12:41:11;28.20;62.50
40758;DHT22;26462;47.384;19.218;2023-06-19T12:43:38;28.30;61.30
40758;DHT22;26462;47.384;19.218;2023-06-19T12:46:06;28.30;61.20
40758;DHT22;26462;47.384;19.218;2023-06-19T12:48:33;28.40;58.90
40758;DHT22;26462;47.384;19.218;2023-06-19T12:51:00;28.40;59.20
40758;DHT22;26462;47.384;19.218;2023-06-19T12:53:27;28.40;59.30
40758;DHT22;26462;47.384;19.218;2023-06-19T12:55:59;28.40;60.50
40758;DHT22;26462;47.384;19.218;2023-06-19T12:58:33;28.50;59.30
40758;DHT22;26462;47.384;19.218;2023-06-19T13:01:00;28.50;60.50
40758;DHT22;26462;47.384;19.218;2023-06-19T13:03:27;28.50;60.80
40758;DHT22;26462;47.384;19.218;2023-06-19T13:05:55;28.60;60.70
40758;DHT22;26462;47.384;19.218;2023-06-19T13:08:22;28.60;60.10
40758;DHT22;26462;47.384;19.218;2023-06-19T13:10:49;28.70;61.60
40758;DHT22;26462;47.384;19.218;2023-06-19T13:13:16;28.70;60.10
40758;DHT22;26462;47.384;19.218;2023-06-19T13:15:43;28.60;59.60
40758;DHT22;26462;47.384;19.218;2023-06-19T13:18:11;28.70;59.90
40758;DHT22;26462;47.384;19.218;2023-06-19T13:20:39;28.70;61.10
40758;DHT22;26462;47.384;19.218;2023-06-19T13:23:06;28.70;58.30
40758;DHT22;26462;47.384;19.218;2023-06-19T13:25:33;28.60;58.10
40758;DHT22;26462;47.384;19.218;2023-06-19T13:28:00;28.60;60.00
40758;DHT22;26462;47.384;19.218;2023-06-19T13:30:27;28.70;60.10
40758;DHT22;26462;47.384;19.218;2023-06-19T13:32:56;28.70;59.70
40758;DHT22;26462;47.384;19.218;2023-06-19T13:35:23;28.70;59.70
40758;DHT22;26462;47.384;19.218;2023-06-19T13:37:50;28.70;58.70
40758;DHT22;26462;47.384;19.218;2023-06-19T13:40:17;28.70;59.20
40758;DHT22;26462;47.384;19.218;2023-06-19T13:42:44;28.80;58.90
40758;DHT22;26462;47.384;19.218;2023-06-19T13:45:12;28.80;61.00
40758;DHT22;26462;47.384;19.218;2023-06-19T13:47:39;28.90;59.20
40758;DHT22;26462;47.384;19.218;2023-06-19T13:50:06;29.00;58.40
40758;DHT22;26462;47.384;19.218;2023-06-19T13:52:34;29.00;58.80
40758;DHT22;26462;47.384;19.218;2023-06-19T13:55:01;29.00;58.30
40758;DHT22;26462;47.384;19.218;2023-06-19T13:57:29;29.00;58.60
40758;DHT22;26462;47.384;19.218;2023-06-19T13:59:57;29.10;60.30
40758;DHT22;26462;47.384;19.218;2023-06-19T14:02:24;29.20;59.40
40758;DHT22;26462;47.384;19.218;2023-06-19T14:04:52;29.20;58.10
40758;DHT22;26462;47.384;19.218;2023-06-19T14:07:19;29.20;59.50
40758;DHT22;26462;47.384;19.218;2023-06-19T14:09:48;29.20;58.40
40758;DHT22;26462;47.384;19.218;2023-06-19T14:12:16;29.10;57.80
40758;DHT22;26462;47.384;19.218;2023-06-19T14:14:43;29.00;58.60
40758;DHT22;26462;47.384;19.218;2023-06-19T14:17:10;28.70;58.50
40758;DHT22;26462;47.384;19.218;2023-06-19T14:19:37;28.70;60.50
40758;DHT22;26462;47.384;19.218;2023-06-19T14:22:04;28.80;59.60
40758;DHT22;26462;47.384;19.218;2023-06-19T14:24:34;28.60;59.60
40758;DHT22;26462;47.384;19.218;2023-06-19T14:27:01;28.50;59.50
40758;DHT22;26462;47.384;19.218;2023-06-19T14:29:28;28.40;59.70
40758;DHT22;26462;47.384;19.218;2023-06-19T14:31:55;28.20;60.20
40758;DHT22;26462;47.384;19.218;2023-06-19T14:34:23;28.40;57.60
40758;DHT22;26462;47.384;19.218;2023-06-19T14:36:50;28.30;58.10
40758;DHT22;26462;47.384;19.218;2023-06-19T14:39:17;28.30;57.40
40758;DHT22;26462;47.384;19.218;2023-06-19T14:41:44;28.30;57.00
40758;DHT22;26462;47.384;19.218;2023-06-19T14:44:12;28.20;57.90
40758;DHT22;26462;47.384;19.218;2023-06-19T14:46:39;28.10;58.20
40758;DHT22;26462;47.384;19.218;2023-06-19T14:49:07;28.00;58.70
40758;DHT22;26462;47.384;19.218;2023-06-19T14:51:34;27.90;59.60
40758;DHT22;26462;47.384;19.218;2023-06-19T14:54:01;27.80;59.00
40758;DHT22;26462;47.384;19.218;2023-06-19T14:56:29;27.60;60.10
40758;DHT22;26462;47.384;19.218;2023-06-19T14:58:56;27.50;60.60
40758;DHT22;26462;47.384;19.218;2023-06-19T15:01:23;27.50;61.40
40758;DHT22;26462;47.384;19.218;2023-06-19T15:03:50;27.50;61.10
40758;DHT22;26462;47.384;19.218;2023-06-19T15:06:17;27.40;62.70
40758;DHT22;26462;47.384;19.218;2023-06-19T15:08:45;27.40;63.30
40758;DHT22;26462;47.384;19.218;2023-06-19T15:11:12;27.30;64.00
40758;DHT22;26462;47.384;19.218;2023-06-19T15:13:39;27.30;63.60
40758;DHT22;26462;47.384;19.218;2023-06-19T15:16:06;27.20;63.60
40758;DHT22;26462;47.384;19.218;2023-06-19T15:18:35;27.20;63.90
40758;DHT22;26462;47.384;19.218;2023-06-19T15:21:02;27.20;62.10
40758;DHT22;26462;47.384;19.218;2023-06-19T15:23:30;27.20;63.90
40758;DHT22;26462;47.384;19.218;2023-06-19T15:25:57;27.20;64.10
40758;DHT22;26462;47.384;19.218;2023-06-19T15:28:24;27.20;64.50
40758;DHT22;26462;47.384;19.218;2023-06-19T15:30:51;27.30;64.20